WXM80 ListenWXM80 Stop

You find our weather info also at:

UK Metoffice

WeatherCloud

Weather Underground

Northeastern Weather Network

AWEKAS

Citizen Weather Observer Program (CWOP)

HAMweather, WeatherForYou, PWS Weather


Weather Underground History page Text

Daily Summary for November 21, 2017 Units:  Metric    English   Both
« Previous Day
Next Day »
Daily Weekly Monthly Yearly Custom
  High: Low: Average:
Temperature: 14.7 °C 4.6 °C 9.5 °C
Dew Point: 7.3 °C -2 °C 3.4 °C
Humidity: 76 % 46 % 67 %
Wind Speed: 14.6 km/h 0 km/h 5.1 km/h
Wind Gust: 29.6 km/h - -
Wind:- - SW
Pressure: 1021.9 hPa 1009.4 hPa -
Precipitation: 0 mm    
Historical Graphs
 
 
Tabular Data for November 21, 2017
Time Temperature Dew Point Pressure Wind Wind Speed Wind Gust Humidity Rainfall Rate (Hourly)
00:04 5.4 °C -2 °C 1020.9 hPa SSW 6.4 km/h 9.3 km/h 59 % 0 mm
00:09 5.3 °C -1.8 °C 1020.9 hPa WSW 1.8 km/h 7.4 km/h 60 % 0 mm
00:14 5.3 °C -1.7 °C 1020.9 hPa SW 3.7 km/h 5.6 km/h 61 % 0 mm
00:24 5.2 °C -1.7 °C 1020.9 hPa South 4 km/h 9.3 km/h 61 % 0 mm
00:29 5.2 °C -1.5 °C 1020.9 hPa SW 3.1 km/h 8 km/h 62 % 0 mm
00:39 5.1 °C -1.4 °C 1020.9 hPa WSW 1.9 km/h 5.6 km/h 63 % 0 mm
00:44 5 °C -1.4 °C 1020.9 hPa SW 3.7 km/h 5.6 km/h 63 % 0 mm
00:49 4.9 °C -1.5 °C 1020.9 hPa SW 4.7 km/h 11.1 km/h 63 % 0 mm
00:54 4.9 °C -1.3 °C 1020.9 hPa SW 0.5 km/h 1.9 km/h 64 % 0 mm
01:09 4.8 °C -1.3 °C 1020.9 hPa West 5.8 km/h 9.7 km/h 65 % 0 mm
01:14 4.8 °C -1.4 °C 1020.9 hPa West 8.4 km/h 16.1 km/h 64 % 0 mm
01:30 4.7 °C -1.5 °C 1020.9 hPa SSW 4 km/h 7.4 km/h 64 % 0 mm
01:35 4.7 °C -1.5 °C 1020.9 hPa SW 9.3 km/h 14.8 km/h 64 % 0 mm
01:40 4.8 °C -1.7 °C 1020.9 hPa SSW 6.8 km/h 11.1 km/h 63 % 0 mm
01:45 4.8 °C -1.7 °C 1020.9 hPa WSW 6.1 km/h 16.7 km/h 63 % 0 mm
01:50 4.8 °C -1.6 °C 1020.9 hPa SW 7.7 km/h 13 km/h 63 % 0 mm
02:00 4.9 °C -1.5 °C 1020.9 hPa SW 5.6 km/h 8 km/h 63 % 0 mm
02:10 5 °C -1.4 °C 1012.8 hPa SW 2.6 km/h 5.6 km/h 63 % 0 mm
02:15 5 °C -1.4 °C 1020.9 hPa WSW 1 km/h 5.6 km/h 63 % 0 mm
02:20 5 °C -1.3 °C 1020.9 hPa SW 4 km/h 6.4 km/h 64 % 0 mm
02:25 5 °C -1.3 °C 1020.9 hPa SW 3.2 km/h 5.6 km/h 64 % 0 mm
02:30 4.9 °C -1.3 °C 1021.2 hPa SSW 4.8 km/h 11.1 km/h 64 % 0 mm
02:33 4.9 °C -1.3 °C 1021.2 hPa WSW 2.4 km/h 9.3 km/h 64 % 0 mm
02:43 4.9 °C -1.1 °C 1020.9 hPa WSW 0.6 km/h 5.6 km/h 65 % 0 mm
02:48 4.9 °C -1.2 °C 1020.9 hPa SW 4.3 km/h 9.7 km/h 65 % 0 mm
02:58 4.8 °C -1.2 °C 1020.9 hPa SW 1.4 km/h 5.6 km/h 65 % 0 mm
03:03 4.8 °C -1.2 °C 1020.9 hPa SW 1.1 km/h 3.7 km/h 65 % 0 mm
03:13 4.7 °C -0.9 °C 1020.9 hPa SW 6 km/h 11.1 km/h 67 % 0 mm
03:18 4.7 °C -0.9 °C 1020.9 hPa SW 4.8 km/h 7.4 km/h 67 % 0 mm
03:28 4.6 °C -0.8 °C 1020.9 hPa SSW 3.2 km/h 7.4 km/h 68 % 0 mm
03:33 4.6 °C -0.8 °C 1021.2 hPa SW 1.9 km/h 5.6 km/h 68 % 0 mm
03:38 4.6 °C -0.7 °C 1012.8 hPa SSW 6.6 km/h 9.7 km/h 69 % 0 mm
03:43 4.6 °C -0.7 °C 1020.9 hPa SW 4 km/h 6.4 km/h 69 % 0 mm
03:48 4.6 °C -0.7 °C 1021.2 hPa WSW 2.4 km/h 7.4 km/h 69 % 0 mm
03:53 4.6 °C -0.7 °C 1020.9 hPa WSW 4.8 km/h 8 km/h 69 % 0 mm
04:03 4.7 °C -0.3 °C 1020.9 hPa WSW 6.3 km/h 8 km/h 70 % 0 mm
04:13 4.8 °C -0.2 °C 1020.9 hPa SW 6.6 km/h 14.8 km/h 70 % 0 mm
04:18 4.9 °C -0.1 °C 1020.9 hPa SW 5.3 km/h 9.3 km/h 70 % 0 mm
04:19 4.9 °C -0.1 °C 1020.9 hPa WSW 5.1 km/h 9.3 km/h 70 % 0 mm
04:28 5 °C 0.2 °C 1020.9 hPa SW 6.1 km/h 9.7 km/h 71 % 0 mm
04:38 5.2 °C 0.3 °C 1020.9 hPa SW 3.1 km/h 9.3 km/h 71 % 0 mm
04:53 5.2 °C 0.4 °C 1020.5 hPa Calm   1.9 km/h 71 % 0 mm
04:58 5.2 °C 0.4 °C 1012.4 hPa WSW 1.3 km/h 5.6 km/h 71 % 0 mm
05:03 5.3 °C 0.4 °C 1020.9 hPa SSW 4.2 km/h 6.4 km/h 71 % 0 mm
05:08 5.2 °C 0.4 °C 1020.9 hPa West 4.5 km/h 5.6 km/h 71 % 0 mm
05:14 5.2 °C 0.6 °C 1020.9 hPa SW 1 km/h 1.9 km/h 72 % 0 mm
05:19 5.2 °C 0.6 °C 1020.9 hPa SW 1.9 km/h 1.9 km/h 72 % 0 mm
05:29 5.2 °C 0.6 °C 1020.9 hPa SSW 4.3 km/h 9.3 km/h 72 % 0 mm
05:34 5.1 °C 0.5 °C 1012.8 hPa SW 1 km/h 5.6 km/h 72 % 0 mm
05:44 5.1 °C 0.4 °C 1020.9 hPa SSW 2.3 km/h 5.6 km/h 72 % 0 mm
05:49 5 °C 0.6 °C 1020.9 hPa WSW 2.3 km/h 4.8 km/h 73 % 0 mm
05:54 4.9 °C 0.5 °C 1012.8 hPa WSW 1.6 km/h 5.6 km/h 73 % 0 mm
06:04 4.8 °C 0.4 °C 1021.2 hPa SW 3.5 km/h 5.6 km/h 73 % 0 mm
06:09 4.8 °C 0.4 °C 1021.2 hPa SW 3.4 km/h 5.6 km/h 73 % 0 mm
06:14 4.8 °C 0.6 °C 1021.2 hPa SW 2.3 km/h 7.4 km/h 74 % 0 mm
06:34 4.7 °C 0.4 °C 1021.2 hPa SSW 3.2 km/h 5.6 km/h 74 % 0 mm
06:44 4.7 °C 0.5 °C 1021.2 hPa SW 3.9 km/h 5.6 km/h 74 % 0 mm
06:49 4.7 °C 0.5 °C 1021.2 hPa SW 3.1 km/h 6.4 km/h 74 % 0 mm
06:54 4.8 °C 0.6 °C 1021.6 hPa WSW 3.4 km/h 7.4 km/h 74 % 0 mm
06:59 4.8 °C 0.3 °C 1021.2 hPa SW 2.7 km/h 5.6 km/h 73 % 0 mm
07:04 4.8 °C 0.4 °C 1021.2 hPa WSW 0.8 km/h 5.6 km/h 73 % 0 mm
07:09 4.8 °C 0.6 °C 1021.2 hPa WSW 2.7 km/h 5.6 km/h 74 % 0 mm
07:19 4.9 °C 0.7 °C 1021.6 hPa WSW 4.5 km/h 8 km/h 74 % 0 mm
07:24 4.9 °C 0.7 °C 1021.6 hPa SSW 2.7 km/h 7.4 km/h 74 % 0 mm
07:29 5.1 °C 0.8 °C 1021.9 hPa WSW 1.6 km/h 3.2 km/h 74 % 0 mm
07:34 5.1 °C 1.1 °C 1021.9 hPa SSW 2.3 km/h 6.4 km/h 75 % 0 mm
07:39 5.2 °C 1.1 °C 1021.9 hPa SSW 3.4 km/h 9.3 km/h 75 % 0 mm
07:45 5.3 °C 1.2 °C 1021.6 hPa SSW 7.6 km/h 7.6 km/h 75 % 0 mm
07:55 5.6 °C 1.4 °C 1021.6 hPa SW 3.7 km/h 9.3 km/h 75 % 0 mm
08:00 5.7 °C 1.6 °C 1013.4 hPa WSW 4.2 km/h 8 km/h 75 % 0 mm
08:05 5.9 °C 1.8 °C 1021.6 hPa SW 1.9 km/h 9.3 km/h 75 % 0 mm
08:10 6.1 °C 1.9 °C 1021.6 hPa SW 6.4 km/h 14.8 km/h 75 % 0 mm
08:15 6.3 °C 2.2 °C 1021.6 hPa SSW 2.1 km/h 11.1 km/h 75 % 0 mm
08:20 6.4 °C 2.2 °C 1021.6 hPa SW 3.2 km/h 11.1 km/h 74 % 0 mm
08:25 6.7 °C 2.3 °C 1021.6 hPa SW 7.1 km/h 16.7 km/h 74 % 0 mm
08:30 6.8 °C 2.4 °C 1021.9 hPa SW 4 km/h 6.4 km/h 74 % 0 mm
08:35 7 °C 2.7 °C 1021.6 hPa SW 4.5 km/h 14.8 km/h 74 % 0 mm
08:40 7.2 °C 2.8 °C 1021.6 hPa WSW 4.2 km/h 11.3 km/h 74 % 0 mm
08:50 7.8 °C 3.1 °C 1021.6 hPa SSW 4.7 km/h 7.4 km/h 72 % 0 mm
08:55 8.2 °C 3.4 °C 1021.6 hPa West 1.8 km/h 5.6 km/h 72 % 0 mm
09:00 8.6 °C 3.7 °C 1021.6 hPa SW 0.8 km/h 3.7 km/h 71 % 0 mm
09:05 9.2 °C 3.8 °C 1021.6 hPa SSW 1.3 km/h 5.6 km/h 69 % 0 mm
09:10 9.8 °C 3.9 °C 1021.6 hPa SW 6.1 km/h 8 km/h 67 % 0 mm
09:15 10.3 °C 4.2 °C 1021.2 hPa SSW 2.3 km/h 5.6 km/h 66 % 0 mm
09:20 10.8 °C 4 °C 1021.2 hPa WSW 2.3 km/h 9.3 km/h 63 % 0 mm
09:25 11.2 °C 4.2 °C 1021.2 hPa East 4.3 km/h 9.3 km/h 62 % 0 mm
09:40 12.3 °C 4.6 °C 1021.2 hPa WSW 7.1 km/h 22.5 km/h 59 % 0 mm
09:45 12.7 °C 3.4 °C 1020.9 hPa SW 11.1 km/h 22.2 km/h 53 % 0 mm
09:50 13 °C 3.9 °C 1021.2 hPa WSW 8 km/h 24.1 km/h 54 % 0 mm
09:55 13.3 °C 4.2 °C 1021.2 hPa SW 4.5 km/h 11.1 km/h 54 % 0 mm
10:00 13.6 °C 4.4 °C 1021.2 hPa SE 3.2 km/h 5.6 km/h 54 % 0 mm
10:10 14.1 °C 3.3 °C 1021.2 hPa SW 12.1 km/h 18.5 km/h 48 % 0 mm
10:16 14.2 °C 3.9 °C 1021.2 hPa SSW 3.2 km/h 11.3 km/h 50 % 0 mm
10:21 14.3 °C 3.4 °C 1021.2 hPa SW 8 km/h 14.5 km/h 48 % 0 mm
10:31 14.2 °C 2.8 °C 1020.9 hPa SW 3.2 km/h 14.5 km/h 46 % 0 mm
10:36 14.2 °C 3.7 °C 1020.9 hPa SW 4.8 km/h 11.3 km/h 49 % 0 mm
10:46 14 °C 3.2 °C 1020.5 hPa SSW 12.9 km/h 24.1 km/h 48 % 0 mm
10:56 13.9 °C 2.8 °C 1020.5 hPa SSW 11.3 km/h 22.5 km/h 47 % 0 mm
11:01 13.8 °C 2.7 °C 1020.2 hPa SSW 10.6 km/h 18.5 km/h 47 % 0 mm
11:06 13.8 °C 2.7 °C 1020.2 hPa SSW 5.8 km/h 11.1 km/h 47 % 0 mm
11:11 13.8 °C 2.9 °C 1012.1 hPa SSW 11.3 km/h 16.1 km/h 48 % 0 mm
11:26 13.6 °C 2.8 °C 1019.9 hPa SSW 8 km/h 16.1 km/h 48 % 0 mm
11:41 13.7 °C 3.7 °C 1019.9 hPa SSW 4.8 km/h 19.3 km/h 51 % 0 mm
11:46 13.7 °C 4 °C 1019.9 hPa SSW 9.7 km/h 19.3 km/h 52 % 0 mm
11:51 13.6 °C 3.6 °C 1019.5 hPa SSW 5 km/h 16.7 km/h 51 % 0 mm
11:56 13.6 °C 3.7 °C 1019.5 hPa SSW 8 km/h 25.7 km/h 51 % 0 mm
12:01 13.7 °C 4 °C 1019.5 hPa SW 7.6 km/h 14.8 km/h 52 % 0 mm
12:11 13.7 °C 3.8 °C 1019.2 hPa SW 8.7 km/h 20.4 km/h 51 % 0 mm
12:16 13.7 °C 4.1 °C 1019.2 hPa SSW 14.6 km/h 20.4 km/h 52 % 0 mm
12:31 13.8 °C 4.3 °C 1018.8 hPa South 2.6 km/h 7.4 km/h 53 % 0 mm
12:36 13.8 °C 4.7 °C 1018.8 hPa South 12.9 km/h 29.6 km/h 54 % 0 mm
12:46 13.8 °C 4.6 °C 1018.5 hPa South 10 km/h 18.5 km/h 54 % 0 mm
12:47 13.8 °C 4.6 °C 1018.5 hPa SSW 6.4 km/h 18.5 km/h 54 % 0 mm
12:57 13.7 °C 4.3 °C 1018.5 hPa SSW 3.9 km/h 11.1 km/h 53 % 0 mm
13:02 13.7 °C 4.6 °C 1018.2 hPa SSW 12.4 km/h 20.4 km/h 54 % 0 mm
13:07 13.7 °C 4.3 °C 1018.2 hPa SSW 10.1 km/h 19.3 km/h 53 % 0 mm
13:12 13.7 °C 4.3 °C 1018.2 hPa SSW 7.1 km/h 16.7 km/h 53 % 0 mm
13:17 13.8 °C 4.6 °C 1018.2 hPa WSW 5 km/h 19.3 km/h 54 % 0 mm
13:27 14 °C 4.8 °C 1018.2 hPa SSW 7.1 km/h 14.8 km/h 54 % 0 mm
13:32 14.1 °C 4.7 °C 1018.2 hPa SSW 13.2 km/h 19.3 km/h 53 % 0 mm
13:42 14.3 °C 4.9 °C 1018.2 hPa WSW 13.2 km/h 22.2 km/h 53 % 0 mm
13:47 14.4 °C 5.2 °C 1018.2 hPa WSW 12.1 km/h 16.7 km/h 54 % 0 mm
13:52 14.5 °C 5.8 °C 1018.2 hPa SSW 7.7 km/h 16.1 km/h 56 % 0 mm
13:57 14.6 °C 5.9 °C 1018.2 hPa SSW 12.6 km/h 18.5 km/h 56 % 0 mm
14:07 14.7 °C 6 °C 1017.8 hPa WSW 4.2 km/h 9.3 km/h 56 % 0 mm
14:17 14.4 °C 5.5 °C 1017.8 hPa South 4.5 km/h 9.3 km/h 55 % 0 mm
14:22 14.3 °C 5.9 °C 1017.8 hPa WSW 4.3 km/h 7.4 km/h 57 % 0 mm
14:32 14.1 °C 5.7 °C 1017.8 hPa SW 6.3 km/h 17.7 km/h 57 % 0 mm
14:42 13.8 °C 5.2 °C 1017.8 hPa SW 10.8 km/h 16.7 km/h 56 % 0 mm
14:47 13.7 °C 5.1 °C 1017.8 hPa South 11.6 km/h 27.8 km/h 56 % 0 mm
14:57 13.6 °C 5.2 °C 1017.8 hPa South 6.8 km/h 12.9 km/h 57 % 0 mm
15:02 13.4 °C 5.1 °C 1017.8 hPa SSW 10 km/h 16.7 km/h 57 % 0 mm
15:13 13.3 °C 5.2 °C 1017.8 hPa SW 4.3 km/h 11.1 km/h 58 % 0 mm
15:18 13.2 °C 5.3 °C 1017.8 hPa South 7.9 km/h 18.5 km/h 59 % 0 mm
15:23 13.1 °C 5.4 °C 1009.7 hPa SSW 10.8 km/h 18.5 km/h 60 % 0 mm
15:43 12.7 °C 5.4 °C 1017.5 hPa SSW 5.3 km/h 11.3 km/h 61 % 0 mm
15:48 12.6 °C 5.5 °C 1017.2 hPa South 3.9 km/h 7.4 km/h 62 % 0 mm
15:53 12.5 °C 5.4 °C 1017.2 hPa SSE 2.7 km/h 13 km/h 62 % 0 mm
15:58 12.4 °C 5.6 °C 1016.8 hPa SSW 5 km/h 9.3 km/h 63 % 0 mm
16:03 12.3 °C 5.5 °C 1017.5 hPa SSW 2.7 km/h 5.6 km/h 63 % 0 mm
16:08 12.2 °C 5.6 °C 1017.5 hPa SSW 6.1 km/h 14.8 km/h 64 % 0 mm
16:13 12.1 °C 5.7 °C 1017.5 hPa SW 1.3 km/h 4.8 km/h 65 % 0 mm
16:25 11.8 °C 5.8 °C 1017.5 hPa SW 4.5 km/h 9.7 km/h 67 % 0 mm
16:30 11.7 °C 5.9 °C 1017.8 hPa SSW 2.3 km/h 5.6 km/h 68 % 0 mm
16:40 11.6 °C 6.1 °C 1017.8 hPa SSW 9 km/h 11.1 km/h 69 % 0 mm
16:45 11.4 °C 6.2 °C 1017.8 hPa WSW 3.7 km/h 8 km/h 70 % 0 mm
16:50 11.4 °C 6.1 °C 1017.8 hPa SSW 4.7 km/h 9.3 km/h 70 % 0 mm
16:55 11.3 °C 6.2 °C 1017.8 hPa SSW 3.7 km/h 9.3 km/h 71 % 0 mm
17:05 11.2 °C 6.2 °C 1017.8 hPa SSW 4 km/h 6.4 km/h 71 % 0 mm
17:15 11.1 °C 6.1 °C 1017.8 hPa SW 3.4 km/h 5.6 km/h 71 % 0 mm
17:20 11.1 °C 6.2 °C 1017.8 hPa SW 2.4 km/h 5.6 km/h 72 % 0 mm
17:25 11 °C 6.2 °C 1017.8 hPa South 2.3 km/h 11.1 km/h 72 % 0 mm
17:30 10.9 °C 6.1 °C 1017.8 hPa SSW 1.6 km/h 3.7 km/h 72 % 0 mm
17:35 10.9 °C 6.1 °C 1017.8 hPa SSW 2.3 km/h 5.6 km/h 72 % 0 mm
17:40 10.8 °C 6 °C 1017.8 hPa SW 1.4 km/h 6.4 km/h 72 % 0 mm
17:45 10.8 °C 5.9 °C 1018.2 hPa South 6 km/h 6 km/h 72 % 0 mm
17:55 10.7 °C 6.1 °C 1017.8 hPa SSW 4.3 km/h 11.1 km/h 73 % 0 mm
18:00 10.7 °C 6.1 °C 1017.8 hPa SW 3.1 km/h 11.1 km/h 73 % 0 mm
18:15 10.7 °C 6.4 °C 1018.2 hPa SSW 6.6 km/h 7.4 km/h 75 % 0 mm
18:20 10.7 °C 6.4 °C 1018.2 hPa South 3.2 km/h 5.6 km/h 75 % 0 mm
18:31 10.8 °C 6.5 °C 1017.8 hPa SSW 8 km/h 11.3 km/h 75 % 0 mm
18:36 10.8 °C 6.6 °C 1017.8 hPa SSW 4.8 km/h 14.5 km/h 75 % 0 mm
18:41 10.8 °C 6.6 °C 1018.2 hPa SSW 3.2 km/h 9.7 km/h 75 % 0 mm
18:46 10.9 °C 6.6 °C 1018.2 hPa SSW 5 km/h 13 km/h 75 % 0 mm
18:51 10.9 °C 6.7 °C 1018.2 hPa SSW 3.2 km/h 11.3 km/h 75 % 0 mm
18:56 10.9 °C 6.9 °C 1018.5 hPa SSW 4.8 km/h 14.5 km/h 76 % 0 mm
18:58 10.9 °C 6.9 °C 1018.5 hPa SW 5.6 km/h 7.4 km/h 76 % 0 mm
19:03 11 °C 6.9 °C 1018.5 hPa SSW 6.3 km/h 9.3 km/h 76 % 0 mm
19:13 11.1 °C 7 °C 1018.2 hPa SSW 6 km/h 9.3 km/h 76 % 0 mm
19:18 11.1 °C 7 °C 1018.2 hPa SSW 5.5 km/h 12.9 km/h 76 % 0 mm
19:23 11.1 °C 7.1 °C 1018.2 hPa SW 6.9 km/h 11.1 km/h 76 % 0 mm
19:28 11.2 °C 7.1 °C 1018.2 hPa SSW 6.1 km/h 12.9 km/h 76 % 0 mm
19:48 11.2 °C 6.6 °C 1018.5 hPa WSW 3.9 km/h 11.1 km/h 73 % 0 mm
19:58 11.2 °C 6.6 °C 1018.5 hPa SSW 4.7 km/h 7.4 km/h 73 % 0 mm
20:03 11.2 °C 6.6 °C 1018.5 hPa South 3.9 km/h 5.6 km/h 73 % 0 mm
20:08 11.2 °C 6.3 °C 1018.2 hPa SW 7.6 km/h 9.7 km/h 72 % 0 mm
20:13 11.2 °C 6.3 °C 1018.2 hPa SSW 6.4 km/h 13 km/h 72 % 0 mm
20:18 11.2 °C 6.3 °C 1010 hPa SW 5.5 km/h 11.3 km/h 72 % 0 mm
20:38 11.1 °C 6.4 °C 1018.2 hPa SW 2.9 km/h 7.4 km/h 73 % 0 mm
20:43 11.1 °C 6.4 °C 1018.2 hPa South 5.6 km/h 11.3 km/h 73 % 0 mm
20:48 11 °C 6.6 °C 1018.2 hPa WSW 3.2 km/h 13 km/h 74 % 0 mm
20:53 10.9 °C 6.5 °C 1018.2 hPa SW 3.7 km/h 13 km/h 74 % 0 mm
20:59 10.9 °C 6.7 °C 1018.2 hPa SSW 5.8 km/h 11.1 km/h 75 % 0 mm
21:04 10.9 °C 6.6 °C 1018.2 hPa SSW 5.6 km/h 14.8 km/h 75 % 0 mm
21:08 10.9 °C 6.8 °C 1018.2 hPa SSW 6.3 km/h 11.1 km/h 76 % 0 mm
21:13 10.9 °C 6.8 °C 1018.2 hPa SSW 4.2 km/h 11.1 km/h 76 % 0 mm
21:18 10.9 °C 6.8 °C 1018.2 hPa WSW 8.4 km/h 14.8 km/h 76 % 0 mm
21:24 10.9 °C 6.8 °C 1018.2 hPa South 4.7 km/h 9.3 km/h 76 % 0 mm
21:34 10.9 °C 6.8 °C 1018.2 hPa SSW 4.8 km/h 9.3 km/h 76 % 0 mm
21:39 10.9 °C 6.9 °C 1018.2 hPa SW 4.3 km/h 9.3 km/h 76 % 0 mm
21:44 10.9 °C 6.8 °C 1018.2 hPa SSW 5.3 km/h 8 km/h 76 % 0 mm
21:49 10.9 °C 6.8 °C 1018.2 hPa WSW 1.8 km/h 7.4 km/h 76 % 0 mm
21:50 10.9 °C 6.8 °C 1018.2 hPa SSW 3.1 km/h 7.4 km/h 76 % 0 mm
21:55 10.9 °C 6.8 °C 1018.2 hPa SW 8 km/h 13 km/h 76 % 0 mm
22:00 10.9 °C 6.8 °C 1018.2 hPa SW 4.2 km/h 13 km/h 76 % 0 mm
22:10 10.9 °C 6.9 °C 1017.8 hPa SW 4.3 km/h 7.4 km/h 76 % 0 mm
22:15 10.9 °C 6.9 °C 1017.8 hPa SW 6.8 km/h 9.3 km/h 76 % 0 mm
22:20 10.9 °C 6.9 °C 1017.8 hPa South 4 km/h 11.1 km/h 76 % 0 mm
22:30 11.1 °C 7.1 °C 1017.8 hPa SSW 7.4 km/h 11.1 km/h 76 % 0 mm
22:40 11.2 °C 7.2 °C 1017.8 hPa SSW 10.9 km/h 18.5 km/h 76 % 0 mm
22:50 11.3 °C 7.1 °C 1017.8 hPa SSW 5 km/h 11.1 km/h 75 % 0 mm
22:55 11.4 °C 7.1 °C 1017.8 hPa WSW 5.6 km/h 11.1 km/h 75 % 0 mm
23:01 11.4 °C 7.2 °C 1017.5 hPa SSW 8.9 km/h 16.7 km/h 75 % 0 mm
23:06 11.5 °C 7.2 °C 1009.7 hPa SSW 3.9 km/h 8 km/h 75 % 0 mm
23:16 11.5 °C 7.2 °C 1017.5 hPa SSW 4.8 km/h 11.3 km/h 75 % 0 mm
23:21 11.5 °C 7.2 °C 1017.5 hPa SSW 3.2 km/h 7.4 km/h 75 % 0 mm
23:26 11.6 °C 7.2 °C 1017.5 hPa SSW 3.2 km/h 12.9 km/h 75 % 0 mm
23:31 11.5 °C 7.2 °C 1009.4 hPa SW 3.1 km/h 11.1 km/h 75 % 0 mm
23:36 11.6 °C 7.3 °C 1017.5 hPa South 7.6 km/h 12.9 km/h 75 % 0 mm
23:40 11.6 °C 7.3 °C 1017.5 hPa SSW 4 km/h 13 km/h 75 % 0 mm
23:50 11.6 °C 7.3 °C 1017.5 hPa SW 5.6 km/h 5.6 km/h 75 % 0 mm
Crab Meadow Weather
Compliments of Weather Underground - 2.5 mb

Script developed by  Jim McMurry - jmcmurry@mwt.net Adapted for the template by  Wim van der Kuil - Leuven-Template.eu

Weather Terms: Waterspout - In general, a tornado occurring over water. Specifically, it refers to a small, relatively weak rotating column of air over water beneath a towering cumulus or cumulonimbus cloud. They occasionally occur over Lake Michigan in late summer with unusually cold air aloft.